sensor_id;sensor_type;location;lat;lon;timestamp;P1;durP1;ratioP1;P2;durP2;ratioP2
39728;SDS011;25402;42.004;23.088;2023-05-14T00:00:54;9.85;;;5.00;;
39728;SDS011;25402;42.004;23.088;2023-05-14T00:03:21;13.85;;;4.82;;
39728;SDS011;25402;42.004;23.088;2023-05-14T00:05:48;15.60;;;5.55;;
39728;SDS011;25402;42.004;23.088;2023-05-14T00:08:15;9.18;;;4.63;;
39728;SDS011;25402;42.004;23.088;2023-05-14T00:10:42;12.93;;;4.93;;
39728;SDS011;25402;42.004;23.088;2023-05-14T00:13:09;12.35;;;5.28;;
39728;SDS011;25402;42.004;23.088;2023-05-14T00:15:36;10.75;;;5.07;;
39728;SDS011;25402;42.004;23.088;2023-05-14T00:18:04;10.57;;;5.15;;
39728;SDS011;25402;42.004;23.088;2023-05-14T00:20:32;14.07;;;5.30;;
39728;SDS011;25402;42.004;23.088;2023-05-14T00:22:59;9.20;;;5.40;;
39728;SDS011;25402;42.004;23.088;2023-05-14T00:25:26;12.30;;;5.28;;
39728;SDS011;25402;42.004;23.088;2023-05-14T00:27:53;11.38;;;5.70;;
39728;SDS011;25402;42.004;23.088;2023-05-14T00:30:20;14.63;;;5.25;;
39728;SDS011;25402;42.004;23.088;2023-05-14T00:32:47;11.25;;;5.30;;
39728;SDS011;25402;42.004;23.088;2023-05-14T00:35:15;7.70;;;5.30;;
39728;SDS011;25402;42.004;23.088;2023-05-14T00:37:42;15.23;;;5.57;;
39728;SDS011;25402;42.004;23.088;2023-05-14T00:40:09;11.25;;;5.82;;
39728;SDS011;25402;42.004;23.088;2023-05-14T00:42:37;13.10;;;5.38;;
39728;SDS011;25402;42.004;23.088;2023-05-14T00:45:04;14.63;;;6.22;;
39728;SDS011;25402;42.004;23.088;2023-05-14T00:47:32;10.32;;;5.93;;
39728;SDS011;25402;42.004;23.088;2023-05-14T00:49:59;11.85;;;5.85;;
39728;SDS011;25402;42.004;23.088;2023-05-14T00:52:27;8.55;;;5.38;;
39728;SDS011;25402;42.004;23.088;2023-05-14T00:54:54;8.73;;;5.15;;
39728;SDS011;25402;42.004;23.088;2023-05-14T00:57:22;19.80;;;5.97;;
39728;SDS011;25402;42.004;23.088;2023-05-14T00:59:49;8.63;;;5.45;;
39728;SDS011;25402;42.004;23.088;2023-05-14T01:02:16;12.57;;;5.78;;
39728;SDS011;25402;42.004;23.088;2023-05-14T01:04:43;10.10;;;5.20;;
39728;SDS011;25402;42.004;23.088;2023-05-14T01:07:12;7.97;;;4.85;;
39728;SDS011;25402;42.004;23.088;2023-05-14T01:09:48;7.35;;;4.72;;
39728;SDS011;25402;42.004;23.088;2023-05-14T01:12:20;8.05;;;5.45;;
39728;SDS011;25402;42.004;23.088;2023-05-14T01:14:56;8.82;;;5.40;;
39728;SDS011;25402;42.004;23.088;2023-05-14T01:17:27;9.23;;;5.63;;
39728;SDS011;25402;42.004;23.088;2023-05-14T01:19:58;17.95;;;5.60;;
39728;SDS011;25402;42.004;23.088;2023-05-14T01:22:27;11.18;;;5.63;;
39728;SDS011;25402;42.004;23.088;2023-05-14T01:24:54;16.08;;;5.53;;
39728;SDS011;25402;42.004;23.088;2023-05-14T01:27:34;12.05;;;5.70;;
39728;SDS011;25402;42.004;23.088;2023-05-14T01:30:09;11.18;;;5.93;;
39728;SDS011;25402;42.004;23.088;2023-05-14T01:32:42;8.25;;;5.55;;
39728;SDS011;25402;42.004;23.088;2023-05-14T01:35:13;10.80;;;6.03;;
39728;SDS011;25402;42.004;23.088;2023-05-14T01:37:42;8.18;;;5.78;;
39728;SDS011;25402;42.004;23.088;2023-05-14T01:40:10;8.43;;;4.72;;
39728;SDS011;25402;42.004;23.088;2023-05-14T01:42:38;11.70;;;5.50;;
39728;SDS011;25402;42.004;23.088;2023-05-14T01:45:06;11.60;;;5.38;;
39728;SDS011;25402;42.004;23.088;2023-05-14T01:47:33;7.55;;;5.43;;
39728;SDS011;25402;42.004;23.088;2023-05-14T01:50:00;10.55;;;5.95;;
39728;SDS011;25402;42.004;23.088;2023-05-14T01:52:27;11.23;;;5.88;;
39728;SDS011;25402;42.004;23.088;2023-05-14T01:54:55;10.60;;;6.50;;
39728;SDS011;25402;42.004;23.088;2023-05-14T01:57:24;10.68;;;6.20;;
39728;SDS011;25402;42.004;23.088;2023-05-14T01:59:51;12.05;;;6.32;;
39728;SDS011;25402;42.004;23.088;2023-05-14T02:02:17;12.10;;;6.40;;
39728;SDS011;25402;42.004;23.088;2023-05-14T02:04:44;9.43;;;6.40;;
39728;SDS011;25402;42.004;23.088;2023-05-14T02:07:11;8.98;;;5.63;;
39728;SDS011;25402;42.004;23.088;2023-05-14T02:09:38;11.18;;;6.30;;
39728;SDS011;25402;42.004;23.088;2023-05-14T02:12:07;14.98;;;6.85;;
39728;SDS011;25402;42.004;23.088;2023-05-14T02:14:35;12.25;;;6.88;;
39728;SDS011;25402;42.004;23.088;2023-05-14T02:17:02;10.40;;;7.00;;
39728;SDS011;25402;42.004;23.088;2023-05-14T02:19:29;8.57;;;6.10;;
39728;SDS011;25402;42.004;23.088;2023-05-14T02:21:57;10.80;;;5.93;;
39728;SDS011;25402;42.004;23.088;2023-05-14T02:24:24;12.32;;;6.40;;
39728;SDS011;25402;42.004;23.088;2023-05-14T02:26:51;11.77;;;5.70;;
39728;SDS011;25402;42.004;23.088;2023-05-14T02:29:19;11.05;;;6.38;;
39728;SDS011;25402;42.004;23.088;2023-05-14T02:31:46;8.73;;;6.25;;
39728;SDS011;25402;42.004;23.088;2023-05-14T02:34:13;14.15;;;5.93;;
39728;SDS011;25402;42.004;23.088;2023-05-14T02:36:40;8.63;;;6.10;;
39728;SDS011;25402;42.004;23.088;2023-05-14T02:39:07;7.78;;;5.78;;
39728;SDS011;25402;42.004;23.088;2023-05-14T02:41:34;9.40;;;6.18;;
39728;SDS011;25402;42.004;23.088;2023-05-14T02:44:00;8.88;;;6.20;;
39728;SDS011;25402;42.004;23.088;2023-05-14T02:46:29;11.38;;;6.55;;
39728;SDS011;25402;42.004;23.088;2023-05-14T02:48:56;9.57;;;6.22;;
39728;SDS011;25402;42.004;23.088;2023-05-14T02:51:22;11.73;;;6.13;;
39728;SDS011;25402;42.004;23.088;2023-05-14T02:53:50;9.18;;;6.40;;
39728;SDS011;25402;42.004;23.088;2023-05-14T02:56:17;12.30;;;7.07;;
39728;SDS011;25402;42.004;23.088;2023-05-14T02:58:45;15.73;;;6.55;;
39728;SDS011;25402;42.004;23.088;2023-05-14T03:01:12;12.35;;;6.10;;
39728;SDS011;25402;42.004;23.088;2023-05-14T03:03:40;11.98;;;7.13;;
39728;SDS011;25402;42.004;23.088;2023-05-14T03:06:07;10.88;;;6.40;;
39728;SDS011;25402;42.004;23.088;2023-05-14T03:08:34;8.75;;;5.50;;
39728;SDS011;25402;42.004;23.088;2023-05-14T03:11:01;12.95;;;6.65;;
39728;SDS011;25402;42.004;23.088;2023-05-14T03:13:28;11.23;;;7.13;;
39728;SDS011;25402;42.004;23.088;2023-05-14T03:15:55;12.85;;;6.30;;
39728;SDS011;25402;42.004;23.088;2023-05-14T03:18:22;8.68;;;6.50;;
39728;SDS011;25402;42.004;23.088;2023-05-14T03:20:50;10.50;;;7.38;;
39728;SDS011;25402;42.004;23.088;2023-05-14T03:23:17;11.77;;;6.80;;
39728;SDS011;25402;42.004;23.088;2023-05-14T03:25:43;8.98;;;6.78;;
39728;SDS011;25402;42.004;23.088;2023-05-14T03:28:10;9.70;;;5.85;;
39728;SDS011;25402;42.004;23.088;2023-05-14T03:30:37;8.75;;;5.75;;
39728;SDS011;25402;42.004;23.088;2023-05-14T03:33:04;8.25;;;5.25;;
39728;SDS011;25402;42.004;23.088;2023-05-14T03:35:31;9.40;;;5.38;;
39728;SDS011;25402;42.004;23.088;2023-05-14T03:37:59;8.52;;;5.53;;
39728;SDS011;25402;42.004;23.088;2023-05-14T03:40:26;10.65;;;5.40;;
39728;SDS011;25402;42.004;23.088;2023-05-14T03:42:53;14.27;;;5.93;;
39728;SDS011;25402;42.004;23.088;2023-05-14T03:45:20;9.73;;;5.50;;
39728;SDS011;25402;42.004;23.088;2023-05-14T03:47:47;11.25;;;6.40;;
39728;SDS011;25402;42.004;23.088;2023-05-14T03:50:14;10.48;;;6.00;;
39728;SDS011;25402;42.004;23.088;2023-05-14T03:52:41;8.25;;;5.70;;
39728;SDS011;25402;42.004;23.088;2023-05-14T03:55:10;12.55;;;5.75;;
39728;SDS011;25402;42.004;23.088;2023-05-14T03:57:39;11.48;;;5.75;;
39728;SDS011;25402;42.004;23.088;2023-05-14T04:00:06;10.82;;;5.82;;
39728;SDS011;25402;42.004;23.088;2023-05-14T04:02:34;11.52;;;5.65;;
39728;SDS011;25402;42.004;23.088;2023-05-14T04:05:05;8.45;;;5.40;;
39728;SDS011;25402;42.004;23.088;2023-05-14T04:07:32;10.88;;;5.38;;
39728;SDS011;25402;42.004;23.088;2023-05-14T04:09:59;9.30;;;5.47;;
39728;SDS011;25402;42.004;23.088;2023-05-14T04:12:28;8.82;;;5.53;;
39728;SDS011;25402;42.004;23.088;2023-05-14T04:14:57;15.63;;;6.00;;
39728;SDS011;25402;42.004;23.088;2023-05-14T04:17:31;13.88;;;5.63;;
39728;SDS011;25402;42.004;23.088;2023-05-14T04:19:58;10.57;;;5.65;;
39728;SDS011;25402;42.004;23.088;2023-05-14T04:22:26;7.60;;;5.20;;
39728;SDS011;25402;42.004;23.088;2023-05-14T04:24:54;13.10;;;5.57;;
39728;SDS011;25402;42.004;23.088;2023-05-14T04:27:20;8.50;;;5.28;;
39728;SDS011;25402;42.004;23.088;2023-05-14T04:29:49;8.68;;;5.53;;
39728;SDS011;25402;42.004;23.088;2023-05-14T04:32:16;8.52;;;5.30;;
39728;SDS011;25402;42.004;23.088;2023-05-14T04:34:43;8.93;;;5.57;;
39728;SDS011;25402;42.004;23.088;2023-05-14T04:37:10;7.65;;;4.93;;
39728;SDS011;25402;42.004;23.088;2023-05-14T04:39:38;8.93;;;5.40;;
39728;SDS011;25402;42.004;23.088;2023-05-14T04:42:05;7.70;;;5.10;;
39728;SDS011;25402;42.004;23.088;2023-05-14T04:44:32;7.65;;;5.45;;
39728;SDS011;25402;42.004;23.088;2023-05-14T04:47:00;6.63;;;4.78;;
39728;SDS011;25402;42.004;23.088;2023-05-14T04:49:28;8.50;;;5.63;;
39728;SDS011;25402;42.004;23.088;2023-05-14T04:51:54;13.27;;;5.65;;
39728;SDS011;25402;42.004;23.088;2023-05-14T04:54:21;9.43;;;5.43;;
39728;SDS011;25402;42.004;23.088;2023-05-14T04:56:48;10.68;;;5.82;;
39728;SDS011;25402;42.004;23.088;2023-05-14T04:59:15;8.57;;;5.25;;
39728;SDS011;25402;42.004;23.088;2023-05-14T05:01:42;11.40;;;6.13;;
39728;SDS011;25402;42.004;23.088;2023-05-14T05:04:13;11.98;;;5.82;;
39728;SDS011;25402;42.004;23.088;2023-05-14T05:06:41;9.20;;;6.22;;
39728;SDS011;25402;42.004;23.088;2023-05-14T05:09:10;12.50;;;6.43;;
39728;SDS011;25402;42.004;23.088;2023-05-14T05:11:37;13.27;;;6.63;;
39728;SDS011;25402;42.004;23.088;2023-05-14T05:14:06;10.60;;;6.53;;
39728;SDS011;25402;42.004;23.088;2023-05-14T05:16:38;9.93;;;5.70;;
39728;SDS011;25402;42.004;23.088;2023-05-14T05:19:05;13.32;;;7.18;;
39728;SDS011;25402;42.004;23.088;2023-05-14T05:21:33;10.35;;;7.32;;
39728;SDS011;25402;42.004;23.088;2023-05-14T05:24:00;13.13;;;6.90;;
39728;SDS011;25402;42.004;23.088;2023-05-14T05:26:30;10.13;;;6.40;;
39728;SDS011;25402;42.004;23.088;2023-05-14T05:29:00;8.93;;;6.32;;
39728;SDS011;25402;42.004;23.088;2023-05-14T05:31:27;8.82;;;6.32;;
39728;SDS011;25402;42.004;23.088;2023-05-14T05:33:56;9.73;;;5.78;;
39728;SDS011;25402;42.004;23.088;2023-05-14T05:36:24;10.65;;;6.95;;
39728;SDS011;25402;42.004;23.088;2023-05-14T05:38:52;21.17;;;11.30;;
39728;SDS011;25402;42.004;23.088;2023-05-14T05:41:20;15.65;;;8.27;;
39728;SDS011;25402;42.004;23.088;2023-05-14T05:43:51;11.82;;;6.78;;
39728;SDS011;25402;42.004;23.088;2023-05-14T05:46:18;13.23;;;7.00;;
39728;SDS011;25402;42.004;23.088;2023-05-14T05:48:45;11.68;;;5.82;;
39728;SDS011;25402;42.004;23.088;2023-05-14T05:51:11;10.45;;;6.38;;
39728;SDS011;25402;42.004;23.088;2023-05-14T05:53:39;15.18;;;5.68;;
39728;SDS011;25402;42.004;23.088;2023-05-14T05:56:07;9.68;;;5.82;;
39728;SDS011;25402;42.004;23.088;2023-05-14T05:58:34;7.68;;;5.40;;
39728;SDS011;25402;42.004;23.088;2023-05-14T06:01:01;9.82;;;5.40;;
39728;SDS011;25402;42.004;23.088;2023-05-14T06:03:28;13.20;;;5.40;;
39728;SDS011;25402;42.004;23.088;2023-05-14T06:05:55;10.48;;;5.90;;
39728;SDS011;25402;42.004;23.088;2023-05-14T06:08:21;8.93;;;6.00;;
39728;SDS011;25402;42.004;23.088;2023-05-14T06:10:48;8.52;;;6.38;;
39728;SDS011;25402;42.004;23.088;2023-05-14T06:13:17;8.32;;;5.22;;
39728;SDS011;25402;42.004;23.088;2023-05-14T06:15:43;10.88;;;5.60;;
39728;SDS011;25402;42.004;23.088;2023-05-14T06:18:10;12.98;;;5.93;;
39728;SDS011;25402;42.004;23.088;2023-05-14T06:20:37;11.20;;;5.13;;
39728;SDS011;25402;42.004;23.088;2023-05-14T06:23:05;8.88;;;5.07;;
39728;SDS011;25402;42.004;23.088;2023-05-14T06:25:32;6.78;;;4.70;;
39728;SDS011;25402;42.004;23.088;2023-05-14T06:27:59;8.63;;;4.57;;
39728;SDS011;25402;42.004;23.088;2023-05-14T06:30:27;6.57;;;4.72;;
39728;SDS011;25402;42.004;23.088;2023-05-14T06:32:54;6.65;;;5.10;;
39728;SDS011;25402;42.004;23.088;2023-05-14T06:35:22;7.35;;;4.75;;
39728;SDS011;25402;42.004;23.088;2023-05-14T06:37:49;9.15;;;4.57;;
39728;SDS011;25402;42.004;23.088;2023-05-14T06:40:16;8.52;;;4.72;;
39728;SDS011;25402;42.004;23.088;2023-05-14T06:42:43;6.57;;;4.45;;
39728;SDS011;25402;42.004;23.088;2023-05-14T06:45:10;9.35;;;4.85;;
39728;SDS011;25402;42.004;23.088;2023-05-14T06:47:38;7.45;;;4.63;;
39728;SDS011;25402;42.004;23.088;2023-05-14T06:50:05;10.18;;;4.68;;
39728;SDS011;25402;42.004;23.088;2023-05-14T06:52:33;8.45;;;5.03;;
39728;SDS011;25402;42.004;23.088;2023-05-14T06:54:59;8.13;;;4.35;;
39728;SDS011;25402;42.004;23.088;2023-05-14T06:57:26;10.70;;;4.50;;
39728;SDS011;25402;42.004;23.088;2023-05-14T06:59:53;11.15;;;5.05;;
39728;SDS011;25402;42.004;23.088;2023-05-14T07:02:21;6.07;;;4.68;;
39728;SDS011;25402;42.004;23.088;2023-05-14T07:04:49;6.85;;;5.05;;
39728;SDS011;25402;42.004;23.088;2023-05-14T07:07:16;6.65;;;4.95;;
39728;SDS011;25402;42.004;23.088;2023-05-14T07:09:45;7.88;;;5.28;;
39728;SDS011;25402;42.004;23.088;2023-05-14T07:12:12;7.53;;;4.80;;
39728;SDS011;25402;42.004;23.088;2023-05-14T07:14:39;7.80;;;5.28;;
39728;SDS011;25402;42.004;23.088;2023-05-14T07:17:06;13.98;;;6.32;;
39728;SDS011;25402;42.004;23.088;2023-05-14T07:19:32;15.32;;;5.97;;
39728;SDS011;25402;42.004;23.088;2023-05-14T07:22:01;8.60;;;6.45;;
39728;SDS011;25402;42.004;23.088;2023-05-14T07:24:28;9.32;;;6.53;;
39728;SDS011;25402;42.004;23.088;2023-05-14T07:26:54;10.02;;;6.90;;
39728;SDS011;25402;42.004;23.088;2023-05-14T07:29:22;13.05;;;7.03;;
39728;SDS011;25402;42.004;23.088;2023-05-14T07:31:49;9.20;;;5.68;;
39728;SDS011;25402;42.004;23.088;2023-05-14T07:34:16;10.85;;;6.70;;
39728;SDS011;25402;42.004;23.088;2023-05-14T07:36:43;8.85;;;6.25;;
39728;SDS011;25402;42.004;23.088;2023-05-14T07:39:12;9.77;;;5.93;;
39728;SDS011;25402;42.004;23.088;2023-05-14T07:41:39;13.25;;;5.10;;
39728;SDS011;25402;42.004;23.088;2023-05-14T07:44:06;8.40;;;4.40;;
39728;SDS011;25402;42.004;23.088;2023-05-14T07:46:32;7.13;;;4.30;;
39728;SDS011;25402;42.004;23.088;2023-05-14T07:48:59;11.10;;;4.53;;
39728;SDS011;25402;42.004;23.088;2023-05-14T07:51:26;12.27;;;4.82;;
39728;SDS011;25402;42.004;23.088;2023-05-14T07:53:53;6.50;;;4.82;;
39728;SDS011;25402;42.004;23.088;2023-05-14T07:56:22;8.85;;;4.68;;
39728;SDS011;25402;42.004;23.088;2023-05-14T07:58:49;8.57;;;4.82;;
39728;SDS011;25402;42.004;23.088;2023-05-14T08:01:15;7.00;;;4.30;;
39728;SDS011;25402;42.004;23.088;2023-05-14T08:03:42;5.20;;;3.67;;
39728;SDS011;25402;42.004;23.088;2023-05-14T08:06:09;9.60;;;4.45;;
39728;SDS011;25402;42.004;23.088;2023-05-14T08:08:36;7.88;;;4.60;;
39728;SDS011;25402;42.004;23.088;2023-05-14T08:11:03;6.82;;;4.50;;
39728;SDS011;25402;42.004;23.088;2023-05-14T08:13:32;7.30;;;4.68;;
39728;SDS011;25402;42.004;23.088;2023-05-14T08:15:59;8.27;;;4.57;;
39728;SDS011;25402;42.004;23.088;2023-05-14T08:18:25;7.63;;;4.78;;
39728;SDS011;25402;42.004;23.088;2023-05-14T08:20:52;6.75;;;4.88;;
39728;SDS011;25402;42.004;23.088;2023-05-14T08:23:19;9.38;;;5.80;;
39728;SDS011;25402;42.004;23.088;2023-05-14T08:25:46;9.10;;;6.22;;
39728;SDS011;25402;42.004;23.088;2023-05-14T08:28:13;12.43;;;7.05;;
39728;SDS011;25402;42.004;23.088;2023-05-14T08:30:41;17.33;;;6.80;;
39728;SDS011;25402;42.004;23.088;2023-05-14T08:33:08;11.05;;;6.70;;
39728;SDS011;25402;42.004;23.088;2023-05-14T08:35:35;11.68;;;5.70;;
39728;SDS011;25402;42.004;23.088;2023-05-14T08:38:02;10.50;;;5.93;;
39728;SDS011;25402;42.004;23.088;2023-05-14T08:40:29;10.77;;;5.45;;
39728;SDS011;25402;42.004;23.088;2023-05-14T08:42:56;9.50;;;5.65;;
39728;SDS011;25402;42.004;23.088;2023-05-14T08:45:28;8.57;;;4.70;;
39728;SDS011;25402;42.004;23.088;2023-05-14T08:47:59;10.93;;;4.43;;
39728;SDS011;25402;42.004;23.088;2023-05-14T08:50:29;6.25;;;4.57;;
39728;SDS011;25402;42.004;23.088;2023-05-14T08:52:56;9.25;;;4.63;;
39728;SDS011;25402;42.004;23.088;2023-05-14T08:55:24;11.93;;;5.93;;
39728;SDS011;25402;42.004;23.088;2023-05-14T08:57:53;15.73;;;6.43;;
39728;SDS011;25402;42.004;23.088;2023-05-14T09:00:20;12.65;;;6.95;;
39728;SDS011;25402;42.004;23.088;2023-05-14T09:02:48;14.55;;;6.70;;
39728;SDS011;25402;42.004;23.088;2023-05-14T09:05:18;9.90;;;4.43;;
39728;SDS011;25402;42.004;23.088;2023-05-14T09:07:46;9.75;;;4.80;;
39728;SDS011;25402;42.004;23.088;2023-05-14T09:10:13;10.13;;;5.00;;
39728;SDS011;25402;42.004;23.088;2023-05-14T09:12:40;8.73;;;4.90;;
39728;SDS011;25402;42.004;23.088;2023-05-14T09:15:07;10.20;;;6.28;;
39728;SDS011;25402;42.004;23.088;2023-05-14T09:17:35;15.85;;;6.03;;
39728;SDS011;25402;42.004;23.088;2023-05-14T09:20:02;10.07;;;6.00;;
39728;SDS011;25402;42.004;23.088;2023-05-14T09:22:31;13.45;;;6.72;;
39728;SDS011;25402;42.004;23.088;2023-05-14T09:25:03;13.40;;;7.03;;
39728;SDS011;25402;42.004;23.088;2023-05-14T09:27:31;10.52;;;6.13;;
39728;SDS011;25402;42.004;23.088;2023-05-14T09:30:06;9.88;;;5.18;;
39728;SDS011;25402;42.004;23.088;2023-05-14T09:32:34;8.48;;;4.95;;
39728;SDS011;25402;42.004;23.088;2023-05-14T09:35:09;7.50;;;5.18;;
39728;SDS011;25402;42.004;23.088;2023-05-14T09:37:38;8.15;;;4.80;;
39728;SDS011;25402;42.004;23.088;2023-05-14T09:40:07;5.97;;;4.43;;
39728;SDS011;25402;42.004;23.088;2023-05-14T09:42:36;10.10;;;4.93;;
39728;SDS011;25402;42.004;23.088;2023-05-14T09:45:03;10.85;;;4.63;;
39728;SDS011;25402;42.004;23.088;2023-05-14T09:47:33;15.20;;;4.88;;
39728;SDS011;25402;42.004;23.088;2023-05-14T09:50:00;6.72;;;4.57;;
39728;SDS011;25402;42.004;23.088;2023-05-14T09:52:27;6.95;;;4.25;;
39728;SDS011;25402;42.004;23.088;2023-05-14T09:54:55;8.93;;;4.45;;
39728;SDS011;25402;42.004;23.088;2023-05-14T09:57:22;5.90;;;4.50;;
39728;SDS011;25402;42.004;23.088;2023-05-14T09:59:50;6.95;;;4.00;;
39728;SDS011;25402;42.004;23.088;2023-05-14T10:02:20;6.90;;;4.07;;
39728;SDS011;25402;42.004;23.088;2023-05-14T10:04:49;7.20;;;3.85;;
39728;SDS011;25402;42.004;23.088;2023-05-14T10:07:20;4.30;;;3.83;;
39728;SDS011;25402;42.004;23.088;2023-05-14T10:09:49;5.88;;;3.70;;
39728;SDS011;25402;42.004;23.088;2023-05-14T10:12:23;6.40;;;3.58;;
39728;SDS011;25402;42.004;23.088;2023-05-14T10:14:55;6.13;;;3.70;;
39728;SDS011;25402;42.004;23.088;2023-05-14T10:17:26;8.68;;;4.13;;
39728;SDS011;25402;42.004;23.088;2023-05-14T10:19:57;7.25;;;3.83;;
39728;SDS011;25402;42.004;23.088;2023-05-14T10:22:29;6.50;;;3.92;;
39728;SDS011;25402;42.004;23.088;2023-05-14T10:24:58;7.13;;;3.80;;
39728;SDS011;25402;42.004;23.088;2023-05-14T10:27:28;5.25;;;3.75;;
39728;SDS011;25402;42.004;23.088;2023-05-14T10:29:56;7.50;;;4.00;;
39728;SDS011;25402;42.004;23.088;2023-05-14T10:32:23;7.03;;;3.72;;
39728;SDS011;25402;42.004;23.088;2023-05-14T10:34:51;8.88;;;3.45;;
39728;SDS011;25402;42.004;23.088;2023-05-14T10:37:20;5.45;;;3.70;;
39728;SDS011;25402;42.004;23.088;2023-05-14T10:39:49;7.95;;;3.80;;
39728;SDS011;25402;42.004;23.088;2023-05-14T10:42:18;3.97;;;3.15;;
39728;SDS011;25402;42.004;23.088;2023-05-14T10:44:52;7.80;;;3.90;;
39728;SDS011;25402;42.004;23.088;2023-05-14T10:47:22;4.85;;;3.25;;
39728;SDS011;25402;42.004;23.088;2023-05-14T10:49:52;7.32;;;3.22;;
39728;SDS011;25402;42.004;23.088;2023-05-14T10:52:19;7.82;;;3.40;;
39728;SDS011;25402;42.004;23.088;2023-05-14T10:54:50;12.32;;;3.70;;
39728;SDS011;25402;42.004;23.088;2023-05-14T10:57:19;9.90;;;3.65;;
39728;SDS011;25402;42.004;23.088;2023-05-14T10:59:47;5.53;;;3.33;;
39728;SDS011;25402;42.004;23.088;2023-05-14T11:02:22;4.75;;;3.13;;
39728;SDS011;25402;42.004;23.088;2023-05-14T11:07:22;5.22;;;3.40;;
39728;SDS011;25402;42.004;23.088;2023-05-14T11:09:50;6.63;;;3.47;;
39728;SDS011;25402;42.004;23.088;2023-05-14T11:12:18;5.90;;;4.18;;
39728;SDS011;25402;42.004;23.088;2023-05-14T11:14:46;6.75;;;4.20;;
39728;SDS011;25402;42.004;23.088;2023-05-14T11:17:13;9.00;;;4.38;;
39728;SDS011;25402;42.004;23.088;2023-05-14T11:19:43;8.00;;;4.38;;
39728;SDS011;25402;42.004;23.088;2023-05-14T11:22:10;7.20;;;4.47;;
39728;SDS011;25402;42.004;23.088;2023-05-14T11:24:39;12.73;;;5.60;;
39728;SDS011;25402;42.004;23.088;2023-05-14T11:27:06;12.98;;;5.38;;
39728;SDS011;25402;42.004;23.088;2023-05-14T11:29:34;8.20;;;5.10;;
39728;SDS011;25402;42.004;23.088;2023-05-14T11:32:03;10.05;;;5.25;;
39728;SDS011;25402;42.004;23.088;2023-05-14T11:34:31;7.80;;;4.93;;
39728;SDS011;25402;42.004;23.088;2023-05-14T11:37:02;12.15;;;4.70;;
39728;SDS011;25402;42.004;23.088;2023-05-14T11:39:29;8.27;;;4.72;;
39728;SDS011;25402;42.004;23.088;2023-05-14T11:41:57;8.38;;;4.22;;
39728;SDS011;25402;42.004;23.088;2023-05-14T11:44:24;8.55;;;3.78;;
39728;SDS011;25402;42.004;23.088;2023-05-14T11:46:54;11.82;;;4.93;;
39728;SDS011;25402;42.004;23.088;2023-05-14T11:49:21;8.23;;;4.03;;
39728;SDS011;25402;42.004;23.088;2023-05-14T11:51:48;10.57;;;4.13;;
39728;SDS011;25402;42.004;23.088;2023-05-14T11:54:17;8.00;;;4.10;;
39728;SDS011;25402;42.004;23.088;2023-05-14T11:56:48;7.88;;;4.25;;
39728;SDS011;25402;42.004;23.088;2023-05-14T11:59:16;7.38;;;3.80;;
39728;SDS011;25402;42.004;23.088;2023-05-14T12:01:44;7.05;;;4.22;;
39728;SDS011;25402;42.004;23.088;2023-05-14T12:04:11;8.57;;;4.30;;
39728;SDS011;25402;42.004;23.088;2023-05-14T12:06:38;4.85;;;4.05;;
39728;SDS011;25402;42.004;23.088;2023-05-14T12:09:05;7.03;;;4.22;;
39728;SDS011;25402;42.004;23.088;2023-05-14T12:11:36;8.15;;;4.40;;
39728;SDS011;25402;42.004;23.088;2023-05-14T12:14:09;6.15;;;3.97;;
39728;SDS011;25402;42.004;23.088;2023-05-14T12:16:38;7.22;;;3.63;;
39728;SDS011;25402;42.004;23.088;2023-05-14T12:19:07;4.95;;;3.85;;
39728;SDS011;25402;42.004;23.088;2023-05-14T12:21:38;6.18;;;4.38;;
39728;SDS011;25402;42.004;23.088;2023-05-14T12:24:08;9.90;;;4.75;;
39728;SDS011;25402;42.004;23.088;2023-05-14T12:26:45;8.00;;;4.10;;
39728;SDS011;25402;42.004;23.088;2023-05-14T12:29:13;6.18;;;4.20;;
39728;SDS011;25402;42.004;23.088;2023-05-14T12:31:44;8.23;;;4.07;;
39728;SDS011;25402;42.004;23.088;2023-05-14T12:34:12;12.93;;;4.55;;
39728;SDS011;25402;42.004;23.088;2023-05-14T12:36:44;9.27;;;4.40;;
39728;SDS011;25402;42.004;23.088;2023-05-14T12:39:11;8.32;;;3.90;;
39728;SDS011;25402;42.004;23.088;2023-05-14T12:41:38;11.27;;;4.43;;
39728;SDS011;25402;42.004;23.088;2023-05-14T12:44:06;8.77;;;3.70;;
39728;SDS011;25402;42.004;23.088;2023-05-14T12:46:33;6.20;;;4.35;;
39728;SDS011;25402;42.004;23.088;2023-05-14T12:49:00;6.05;;;4.32;;
39728;SDS011;25402;42.004;23.088;2023-05-14T12:51:27;5.63;;;3.80;;
39728;SDS011;25402;42.004;23.088;2023-05-14T12:53:54;7.65;;;3.90;;
39728;SDS011;25402;42.004;23.088;2023-05-14T12:56:21;9.52;;;4.63;;
39728;SDS011;25402;42.004;23.088;2023-05-14T12:58:52;6.28;;;4.07;;
39728;SDS011;25402;42.004;23.088;2023-05-14T13:01:21;8.27;;;4.93;;
39728;SDS011;25402;42.004;23.088;2023-05-14T13:03:48;11.45;;;4.00;;
39728;SDS011;25402;42.004;23.088;2023-05-14T13:06:15;8.55;;;4.60;;
39728;SDS011;25402;42.004;23.088;2023-05-14T13:08:42;12.65;;;4.18;;
39728;SDS011;25402;42.004;23.088;2023-05-14T13:11:09;13.65;;;4.22;;
39728;SDS011;25402;42.004;23.088;2023-05-14T13:13:36;10.82;;;4.70;;
39728;SDS011;25402;42.004;23.088;2023-05-14T13:16:03;11.55;;;4.65;;
39728;SDS011;25402;42.004;23.088;2023-05-14T13:18:31;15.32;;;5.65;;
39728;SDS011;25402;42.004;23.088;2023-05-14T13:20:58;6.43;;;5.20;;
39728;SDS011;25402;42.004;23.088;2023-05-14T13:23:28;9.27;;;4.90;;
39728;SDS011;25402;42.004;23.088;2023-05-14T13:25:55;14.25;;;4.47;;
39728;SDS011;25402;42.004;23.088;2023-05-14T13:28:22;6.38;;;4.20;;
39728;SDS011;25402;42.004;23.088;2023-05-14T13:31:02;8.75;;;5.00;;
39728;SDS011;25402;42.004;23.088;2023-05-14T13:33:32;8.23;;;5.18;;
39728;SDS011;25402;42.004;23.088;2023-05-14T13:36:00;8.85;;;5.10;;
39728;SDS011;25402;42.004;23.088;2023-05-14T13:38:27;10.55;;;5.70;;
39728;SDS011;25402;42.004;23.088;2023-05-14T13:40:54;17.90;;;5.88;;
39728;SDS011;25402;42.004;23.088;2023-05-14T13:43:26;6.35;;;5.05;;
39728;SDS011;25402;42.004;23.088;2023-05-14T13:45:53;10.07;;;4.80;;
39728;SDS011;25402;42.004;23.088;2023-05-14T13:48:20;10.80;;;4.32;;
39728;SDS011;25402;42.004;23.088;2023-05-14T13:50:48;9.98;;;4.57;;
39728;SDS011;25402;42.004;23.088;2023-05-14T13:53:16;9.25;;;4.57;;
39728;SDS011;25402;42.004;23.088;2023-05-14T13:55:43;8.45;;;4.80;;
39728;SDS011;25402;42.004;23.088;2023-05-14T13:58:09;9.40;;;4.65;;
39728;SDS011;25402;42.004;23.088;2023-05-14T14:00:36;8.30;;;4.72;;
39728;SDS011;25402;42.004;23.088;2023-05-14T14:03:03;11.13;;;4.55;;
39728;SDS011;25402;42.004;23.088;2023-05-14T14:05:31;9.88;;;5.38;;
39728;SDS011;25402;42.004;23.088;2023-05-14T14:08:00;7.78;;;4.95;;
39728;SDS011;25402;42.004;23.088;2023-05-14T14:10:27;10.25;;;5.50;;
39728;SDS011;25402;42.004;23.088;2023-05-14T14:12:53;6.70;;;5.13;;
39728;SDS011;25402;42.004;23.088;2023-05-14T14:15:20;11.65;;;4.80;;
39728;SDS011;25402;42.004;23.088;2023-05-14T14:17:47;9.65;;;4.80;;
39728;SDS011;25402;42.004;23.088;2023-05-14T14:20:14;11.40;;;5.03;;
39728;SDS011;25402;42.004;23.088;2023-05-14T14:22:42;9.38;;;4.63;;
39728;SDS011;25402;42.004;23.088;2023-05-14T14:25:11;12.25;;;5.32;;
39728;SDS011;25402;42.004;23.088;2023-05-14T14:27:38;7.47;;;5.00;;
39728;SDS011;25402;42.004;23.088;2023-05-14T14:30:06;8.75;;;5.30;;
39728;SDS011;25402;42.004;23.088;2023-05-14T14:32:33;11.20;;;5.15;;
39728;SDS011;25402;42.004;23.088;2023-05-14T14:35:00;8.88;;;4.95;;